CDT,Max TemperatureF,Mean TemperatureF,Min TemperatureF,Max Dew PointF,MeanDew PointF,Min DewpointF,Max Humidity, Mean Humidity, Min Humidity, Max Sea Level PressureIn, Mean Sea Level PressureIn, Min Sea Level PressureIn, Max VisibilityMiles, Mean VisibilityMiles, Min VisibilityMiles, Max Wind SpeedMPH, Mean Wind SpeedMPH, Max Gust SpeedMPH,PrecipitationIn, CloudCover, Events, WindDirDegrees
2012-8-1,95,77,58,70,64,56,93,66,39,29.99,29.91,29.82,10,10,8,15,7,22,0.00,0,,193
2012-8-2,94,81,67,65,62,58,84,58,32,29.89,29.84,29.81,10,10,10,12,6,15,T,2,,39
2012-8-3,95,78,61,66,62,56,97,63,28,29.91,29.84,29.76,10,9,2,37,7,44,0.00,0,,132
2012-8-4,80,71,61,67,62,53,87,65,42,29.98,29.92,29.81,10,9,1,31,10,37,0.47,4,Rain-Thunderstorm,325
2012-8-5,78,65,52,57,52,48,93,65,36,30.24,30.15,30.00,10,10,10,18,8,23,0.00,0,,320
2012-8-6,88,67,46,62,55,45,93,64,34,30.19,30.08,29.96,10,10,9,20,6,24,0.00,0,,184
2012-8-7,94,79,63,65,60,58,87,59,30,30.01,29.96,29.94,10,10,10,13,6,18,0.00,0,,1
2012-8-8,87,74,60,65,62,59,93,72,51,29.99,29.94,29.85,10,10,4,23,6,38,0.05,2,Rain-Thunderstorm,104
2012-8-9,84,70,55,65,60,52,93,66,39,30.05,29.98,29.92,10,7,0,25,11,38,T,4,Fog,353
2012-8-10,79,65,51,56,53,49,93,65,37,30.15,30.10,30.04,10,10,10,16,8,23,0.00,4,,11
2012-8-11,77,60,42,54,44,34,93,58,23,30.12,30.07,30.01,10,10,10,10,3,14,T,0,,32
2012-8-12,62,60,58,59,57,55,97,91,84,30.03,30.00,29.96,10,7,3,10,5,15,0.00,8,Rain,92
2012-8-13,80,67,54,59,56,53,100,71,42,30.09,30.04,29.98,10,7,0,15,7,20,0.00,5,Fog-Rain,346
2012-8-14,84,69,54,62,57,52,93,67,40,29.99,29.94,29.88,10,10,6,18,4,23,T,3,,289
2012-8-15,84,72,60,64,60,56,90,68,45,29.88,29.82,29.73,10,10,10,23,10,28,T,2,,174
2012-8-16,74,62,49,66,54,45,90,67,44,30.09,29.92,29.76,10,10,10,25,16,33,0.01,5,Rain,321
2012-8-17,75,60,44,47,43,40,93,62,31,30.12,30.08,30.05,10,10,10,17,7,22,0.00,0,,322
2012-8-18,74,59,43,53,47,40,93,66,38,30.07,30.04,30.01,10,10,10,15,5,21,0.00,1,,288
2012-8-19,79,64,49,55,50,46,93,65,36,30.05,30.01,29.96,10,10,10,18,6,23,T,2,,317
2012-8-20,79,63,46,53,47,43,93,61,28,30.05,30.02,29.98,10,10,7,13,4,18,0.00,1,,357
2012-8-21,81,61,41,51,44,39,92,59,26,30.10,30.07,30.02,10,9,1,12,4,17,0.00,0,,166
2012-8-22,91,70,49,60,53,46,83,58,32,30.05,29.98,29.90,10,10,10,18,8,23,0.00,1,,167
2012-8-23,93,76,58,58,55,52,87,57,26,29.96,29.91,29.85,10,10,10,29,11,38,0.00,1,,184
2012-8-24,91,77,63,63,57,50,73,55,36,29.92,29.88,29.83,10,10,10,21,12,29,0.00,1,,200
2012-8-25,77,68,59,66,60,55,93,75,56,29.97,29.95,29.90,10,8,5,15,4,20,0.04,4,Rain,166
2012-8-26,88,71,53,66,61,53,100,72,43,30.06,29.99,29.94,10,6,0,12,3,20,0.01,3,Fog,345
2012-8-27,92,70,48,61,52,48,100,62,23,30.15,30.11,30.06,10,7,1,13,4,17,0.00,1,,309
2012-8-28,92,75,57,64,59,53,90,64,38,30.17,30.06,29.97,10,10,7,17,6,22,T,1,,170
2012-8-29,97,82,66,63,58,51,87,55,22,29.99,29.90,29.83,10,10,9,26,13,36,0.00,1,,174
2012-8-30,99,82,65,61,57,52,87,55,22,29.89,29.85,29.81,10,10,9,29,15,37,0.00,0,,196
2012-8-31,91,77,62,61,57,51,93,63,32,30.05,30.01,29.92,10,10,7,15,7,21,0.00,0,,30